sensor_id;sensor_type;location;lat;lon;timestamp;P1;durP1;ratioP1;P2;durP2;ratioP2
69678;SDS011;56915;52.046;4.854;2023-04-19T00:02:00;12.30;;;6.85;;
69678;SDS011;56915;52.046;4.854;2023-04-19T00:04:28;11.77;;;6.90;;
69678;SDS011;56915;52.046;4.854;2023-04-19T00:06:55;14.00;;;7.13;;
69678;SDS011;56915;52.046;4.854;2023-04-19T00:09:23;12.05;;;6.78;;
69678;SDS011;56915;52.046;4.854;2023-04-19T00:11:51;13.07;;;6.90;;
69678;SDS011;56915;52.046;4.854;2023-04-19T00:14:17;13.32;;;7.05;;
69678;SDS011;56915;52.046;4.854;2023-04-19T00:16:44;13.98;;;7.07;;
69678;SDS011;56915;52.046;4.854;2023-04-19T00:19:11;12.63;;;7.22;;
69678;SDS011;56915;52.046;4.854;2023-04-19T00:21:38;13.30;;;7.13;;
69678;SDS011;56915;52.046;4.854;2023-04-19T00:24:05;11.97;;;6.90;;
69678;SDS011;56915;52.046;4.854;2023-04-19T00:26:32;12.43;;;7.10;;
69678;SDS011;56915;52.046;4.854;2023-04-19T00:28:58;12.90;;;6.95;;
69678;SDS011;56915;52.046;4.854;2023-04-19T00:31:25;15.57;;;7.57;;
69678;SDS011;56915;52.046;4.854;2023-04-19T00:33:52;14.30;;;7.40;;
69678;SDS011;56915;52.046;4.854;2023-04-19T00:36:19;13.10;;;7.23;;
69678;SDS011;56915;52.046;4.854;2023-04-19T00:38:46;15.45;;;7.13;;
69678;SDS011;56915;52.046;4.854;2023-04-19T00:41:13;12.70;;;7.45;;
69678;SDS011;56915;52.046;4.854;2023-04-19T00:43:39;13.13;;;7.30;;
69678;SDS011;56915;52.046;4.854;2023-04-19T00:46:06;14.45;;;7.70;;
69678;SDS011;56915;52.046;4.854;2023-04-19T00:48:33;12.37;;;7.50;;
69678;SDS011;56915;52.046;4.854;2023-04-19T00:51:03;13.88;;;7.50;;
69678;SDS011;56915;52.046;4.854;2023-04-19T00:53:30;13.10;;;7.68;;
69678;SDS011;56915;52.046;4.854;2023-04-19T00:55:57;13.95;;;7.60;;
69678;SDS011;56915;52.046;4.854;2023-04-19T00:58:27;13.50;;;7.70;;
69678;SDS011;56915;52.046;4.854;2023-04-19T01:00:56;13.93;;;7.57;;
69678;SDS011;56915;52.046;4.854;2023-04-19T01:03:23;14.07;;;7.75;;
69678;SDS011;56915;52.046;4.854;2023-04-19T01:05:52;13.73;;;8.18;;
69678;SDS011;56915;52.046;4.854;2023-04-19T01:08:20;14.40;;;7.75;;
69678;SDS011;56915;52.046;4.854;2023-04-19T01:10:47;14.98;;;7.75;;
69678;SDS011;56915;52.046;4.854;2023-04-19T01:13:13;12.53;;;7.60;;
69678;SDS011;56915;52.046;4.854;2023-04-19T01:15:40;15.27;;;8.02;;
69678;SDS011;56915;52.046;4.854;2023-04-19T01:18:07;15.88;;;7.88;;
69678;SDS011;56915;52.046;4.854;2023-04-19T01:20:34;13.55;;;7.32;;
69678;SDS011;56915;52.046;4.854;2023-04-19T01:23:01;14.13;;;7.45;;
69678;SDS011;56915;52.046;4.854;2023-04-19T01:25:27;13.80;;;7.60;;
69678;SDS011;56915;52.046;4.854;2023-04-19T01:27:55;12.65;;;7.20;;
69678;SDS011;56915;52.046;4.854;2023-04-19T01:30:21;13.77;;;7.88;;
69678;SDS011;56915;52.046;4.854;2023-04-19T01:32:48;11.43;;;6.18;;
69678;SDS011;56915;52.046;4.854;2023-04-19T01:35:15;14.50;;;7.57;;
69678;SDS011;56915;52.046;4.854;2023-04-19T01:37:42;13.77;;;7.57;;
69678;SDS011;56915;52.046;4.854;2023-04-19T01:40:09;15.27;;;7.72;;
69678;SDS011;56915;52.046;4.854;2023-04-19T01:42:36;12.90;;;7.78;;
69678;SDS011;56915;52.046;4.854;2023-04-19T01:45:03;14.00;;;7.63;;
69678;SDS011;56915;52.046;4.854;2023-04-19T01:47:30;14.40;;;6.68;;
69678;SDS011;56915;52.046;4.854;2023-04-19T01:49:57;14.03;;;7.17;;
69678;SDS011;56915;52.046;4.854;2023-04-19T01:52:24;15.10;;;7.50;;
69678;SDS011;56915;52.046;4.854;2023-04-19T01:54:50;14.90;;;8.10;;
69678;SDS011;56915;52.046;4.854;2023-04-19T01:57:17;15.80;;;8.20;;
69678;SDS011;56915;52.046;4.854;2023-04-19T01:59:44;15.20;;;8.10;;
69678;SDS011;56915;52.046;4.854;2023-04-19T02:02:11;16.37;;;8.73;;
69678;SDS011;56915;52.046;4.854;2023-04-19T02:04:38;16.95;;;8.40;;
69678;SDS011;56915;52.046;4.854;2023-04-19T02:07:04;13.93;;;7.63;;
69678;SDS011;56915;52.046;4.854;2023-04-19T02:09:33;17.75;;;8.45;;
69678;SDS011;56915;52.046;4.854;2023-04-19T02:12:01;15.50;;;8.65;;
69678;SDS011;56915;52.046;4.854;2023-04-19T02:14:28;17.83;;;8.53;;
69678;SDS011;56915;52.046;4.854;2023-04-19T02:16:55;16.67;;;8.60;;
69678;SDS011;56915;52.046;4.854;2023-04-19T02:19:23;15.98;;;8.70;;
69678;SDS011;56915;52.046;4.854;2023-04-19T02:21:49;16.13;;;8.88;;
69678;SDS011;56915;52.046;4.854;2023-04-19T02:24:18;15.50;;;8.70;;
69678;SDS011;56915;52.046;4.854;2023-04-19T02:26:45;15.27;;;8.40;;
69678;SDS011;56915;52.046;4.854;2023-04-19T02:29:12;14.95;;;8.68;;
69678;SDS011;56915;52.046;4.854;2023-04-19T02:31:39;16.90;;;8.80;;
69678;SDS011;56915;52.046;4.854;2023-04-19T02:36:37;16.80;;;9.40;;
69678;SDS011;56915;52.046;4.854;2023-04-19T02:39:04;14.37;;;8.47;;
69678;SDS011;56915;52.046;4.854;2023-04-19T02:41:31;14.68;;;9.02;;
69678;SDS011;56915;52.046;4.854;2023-04-19T02:43:58;15.27;;;8.48;;
69678;SDS011;56915;52.046;4.854;2023-04-19T02:46:25;14.73;;;8.75;;
69678;SDS011;56915;52.046;4.854;2023-04-19T02:48:51;15.25;;;8.73;;
69678;SDS011;56915;52.046;4.854;2023-04-19T02:51:18;17.27;;;9.10;;
69678;SDS011;56915;52.046;4.854;2023-04-19T02:53:45;14.25;;;8.52;;
69678;SDS011;56915;52.046;4.854;2023-04-19T02:56:12;15.73;;;8.30;;
69678;SDS011;56915;52.046;4.854;2023-04-19T02:58:39;15.98;;;8.55;;
69678;SDS011;56915;52.046;4.854;2023-04-19T03:01:06;14.18;;;8.13;;
69678;SDS011;56915;52.046;4.854;2023-04-19T03:03:32;16.17;;;8.17;;
69678;SDS011;56915;52.046;4.854;2023-04-19T03:05:59;14.88;;;8.27;;
69678;SDS011;56915;52.046;4.854;2023-04-19T03:08:27;15.13;;;8.27;;
69678;SDS011;56915;52.046;4.854;2023-04-19T03:10:53;16.52;;;8.80;;
69678;SDS011;56915;52.046;4.854;2023-04-19T03:13:20;14.95;;;8.65;;
69678;SDS011;56915;52.046;4.854;2023-04-19T03:15:47;14.07;;;8.00;;
69678;SDS011;56915;52.046;4.854;2023-04-19T03:18:14;15.50;;;8.40;;
69678;SDS011;56915;52.046;4.854;2023-04-19T03:20:42;13.77;;;7.97;;
69678;SDS011;56915;52.046;4.854;2023-04-19T03:23:08;15.23;;;8.05;;
69678;SDS011;56915;52.046;4.854;2023-04-19T03:25:36;17.38;;;8.02;;
69678;SDS011;56915;52.046;4.854;2023-04-19T03:28:02;14.50;;;8.20;;
69678;SDS011;56915;52.046;4.854;2023-04-19T03:30:29;15.05;;;7.43;;
69678;SDS011;56915;52.046;4.854;2023-04-19T03:32:56;14.73;;;8.38;;
69678;SDS011;56915;52.046;4.854;2023-04-19T03:35:25;14.05;;;7.80;;
69678;SDS011;56915;52.046;4.854;2023-04-19T03:37:52;14.20;;;7.60;;
69678;SDS011;56915;52.046;4.854;2023-04-19T03:40:19;14.87;;;7.97;;
69678;SDS011;56915;52.046;4.854;2023-04-19T03:42:46;15.52;;;7.70;;
69678;SDS011;56915;52.046;4.854;2023-04-19T03:45:13;14.43;;;7.90;;
69678;SDS011;56915;52.046;4.854;2023-04-19T03:47:39;13.10;;;7.50;;
69678;SDS011;56915;52.046;4.854;2023-04-19T03:50:06;12.32;;;7.65;;
69678;SDS011;56915;52.046;4.854;2023-04-19T03:52:33;13.47;;;7.93;;
69678;SDS011;56915;52.046;4.854;2023-04-19T03:55:00;13.00;;;7.97;;
69678;SDS011;56915;52.046;4.854;2023-04-19T03:57:27;13.55;;;7.40;;
69678;SDS011;56915;52.046;4.854;2023-04-19T03:59:54;13.07;;;7.28;;
69678;SDS011;56915;52.046;4.854;2023-04-19T04:02:21;12.35;;;7.38;;
69678;SDS011;56915;52.046;4.854;2023-04-19T04:04:54;14.40;;;7.07;;
69678;SDS011;56915;52.046;4.854;2023-04-19T04:07:21;12.35;;;6.90;;
69678;SDS011;56915;52.046;4.854;2023-04-19T04:09:49;12.20;;;7.28;;
69678;SDS011;56915;52.046;4.854;2023-04-19T04:12:16;12.88;;;6.30;;
69678;SDS011;56915;52.046;4.854;2023-04-19T04:14:43;12.45;;;6.82;;
69678;SDS011;56915;52.046;4.854;2023-04-19T04:17:10;10.80;;;6.53;;
69678;SDS011;56915;52.046;4.854;2023-04-19T04:19:37;12.02;;;7.10;;
69678;SDS011;56915;52.046;4.854;2023-04-19T04:22:03;13.43;;;7.25;;
69678;SDS011;56915;52.046;4.854;2023-04-19T04:24:38;13.63;;;7.10;;
69678;SDS011;56915;52.046;4.854;2023-04-19T04:27:06;12.73;;;6.60;;
69678;SDS011;56915;52.046;4.854;2023-04-19T04:29:36;11.67;;;6.80;;
69678;SDS011;56915;52.046;4.854;2023-04-19T04:32:05;12.40;;;6.82;;
69678;SDS011;56915;52.046;4.854;2023-04-19T04:34:37;11.32;;;6.40;;
69678;SDS011;56915;52.046;4.854;2023-04-19T04:37:04;14.02;;;6.95;;
69678;SDS011;56915;52.046;4.854;2023-04-19T04:39:32;11.77;;;6.80;;
69678;SDS011;56915;52.046;4.854;2023-04-19T04:42:07;12.70;;;6.97;;
69678;SDS011;56915;52.046;4.854;2023-04-19T04:44:35;12.32;;;6.45;;
69678;SDS011;56915;52.046;4.854;2023-04-19T04:47:02;11.90;;;7.05;;
69678;SDS011;56915;52.046;4.854;2023-04-19T04:49:29;12.25;;;6.88;;
69678;SDS011;56915;52.046;4.854;2023-04-19T04:51:56;12.27;;;6.45;;
69678;SDS011;56915;52.046;4.854;2023-04-19T04:54:23;13.07;;;7.07;;
69678;SDS011;56915;52.046;4.854;2023-04-19T04:56:50;14.30;;;7.00;;
69678;SDS011;56915;52.046;4.854;2023-04-19T04:59:17;10.60;;;6.25;;
69678;SDS011;56915;52.046;4.854;2023-04-19T05:01:44;13.98;;;7.10;;
69678;SDS011;56915;52.046;4.854;2023-04-19T05:04:11;14.48;;;6.90;;
69678;SDS011;56915;52.046;4.854;2023-04-19T05:06:38;12.80;;;6.47;;
69678;SDS011;56915;52.046;4.854;2023-04-19T05:09:06;12.00;;;6.28;;
69678;SDS011;56915;52.046;4.854;2023-04-19T05:11:33;11.60;;;6.10;;
69678;SDS011;56915;52.046;4.854;2023-04-19T05:14:00;11.20;;;6.13;;
69678;SDS011;56915;52.046;4.854;2023-04-19T05:16:27;12.70;;;5.97;;
69678;SDS011;56915;52.046;4.854;2023-04-19T05:18:54;12.20;;;6.20;;
69678;SDS011;56915;52.046;4.854;2023-04-19T05:21:21;11.65;;;6.22;;
69678;SDS011;56915;52.046;4.854;2023-04-19T05:23:48;11.60;;;6.40;;
69678;SDS011;56915;52.046;4.854;2023-04-19T05:26:15;11.93;;;6.38;;
69678;SDS011;56915;52.046;4.854;2023-04-19T05:28:42;11.18;;;6.00;;
69678;SDS011;56915;52.046;4.854;2023-04-19T05:31:09;11.80;;;6.17;;
69678;SDS011;56915;52.046;4.854;2023-04-19T05:33:37;10.15;;;5.72;;
69678;SDS011;56915;52.046;4.854;2023-04-19T05:36:04;10.68;;;6.15;;
69678;SDS011;56915;52.046;4.854;2023-04-19T05:38:31;11.07;;;6.13;;
69678;SDS011;56915;52.046;4.854;2023-04-19T05:40:57;11.13;;;6.50;;
69678;SDS011;56915;52.046;4.854;2023-04-19T05:43:24;12.60;;;6.60;;
69678;SDS011;56915;52.046;4.854;2023-04-19T05:45:51;15.70;;;7.28;;
69678;SDS011;56915;52.046;4.854;2023-04-19T05:48:18;12.85;;;6.95;;
69678;SDS011;56915;52.046;4.854;2023-04-19T05:50:44;11.73;;;6.82;;
69678;SDS011;56915;52.046;4.854;2023-04-19T05:53:11;16.15;;;7.55;;
69678;SDS011;56915;52.046;4.854;2023-04-19T05:55:38;14.03;;;6.90;;
69678;SDS011;56915;52.046;4.854;2023-04-19T05:58:05;12.52;;;6.90;;
69678;SDS011;56915;52.046;4.854;2023-04-19T06:00:32;13.85;;;6.80;;
69678;SDS011;56915;52.046;4.854;2023-04-19T06:02:58;13.27;;;6.97;;
69678;SDS011;56915;52.046;4.854;2023-04-19T06:05:26;13.68;;;6.90;;
69678;SDS011;56915;52.046;4.854;2023-04-19T06:07:52;14.27;;;7.03;;
69678;SDS011;56915;52.046;4.854;2023-04-19T06:10:24;13.13;;;6.95;;
69678;SDS011;56915;52.046;4.854;2023-04-19T06:12:59;13.65;;;7.03;;
69678;SDS011;56915;52.046;4.854;2023-04-19T06:15:25;13.35;;;6.88;;
69678;SDS011;56915;52.046;4.854;2023-04-19T06:17:52;12.77;;;6.50;;
69678;SDS011;56915;52.046;4.854;2023-04-19T06:20:19;15.30;;;7.50;;
69678;SDS011;56915;52.046;4.854;2023-04-19T06:22:47;13.20;;;7.03;;
69678;SDS011;56915;52.046;4.854;2023-04-19T06:25:14;13.93;;;7.28;;
69678;SDS011;56915;52.046;4.854;2023-04-19T06:27:40;12.48;;;6.90;;
69678;SDS011;56915;52.046;4.854;2023-04-19T06:30:07;11.15;;;6.47;;
69678;SDS011;56915;52.046;4.854;2023-04-19T06:32:34;13.00;;;6.97;;
69678;SDS011;56915;52.046;4.854;2023-04-19T06:35:01;13.88;;;6.93;;
69678;SDS011;56915;52.046;4.854;2023-04-19T06:37:29;10.52;;;6.03;;
69678;SDS011;56915;52.046;4.854;2023-04-19T06:39:58;12.95;;;6.95;;
69678;SDS011;56915;52.046;4.854;2023-04-19T06:42:26;11.57;;;6.57;;
69678;SDS011;56915;52.046;4.854;2023-04-19T06:44:53;11.13;;;6.27;;
69678;SDS011;56915;52.046;4.854;2023-04-19T06:47:22;12.80;;;6.30;;
69678;SDS011;56915;52.046;4.854;2023-04-19T06:49:49;13.75;;;6.70;;
69678;SDS011;56915;52.046;4.854;2023-04-19T06:52:16;12.85;;;6.32;;
69678;SDS011;56915;52.046;4.854;2023-04-19T06:54:46;12.10;;;6.28;;
69678;SDS011;56915;52.046;4.854;2023-04-19T06:57:14;12.13;;;6.33;;
69678;SDS011;56915;52.046;4.854;2023-04-19T06:59:44;10.77;;;5.88;;
69678;SDS011;56915;52.046;4.854;2023-04-19T07:02:11;10.40;;;5.55;;
69678;SDS011;56915;52.046;4.854;2023-04-19T07:04:37;11.07;;;6.10;;
69678;SDS011;56915;52.046;4.854;2023-04-19T07:07:06;9.95;;;5.97;;
69678;SDS011;56915;52.046;4.854;2023-04-19T07:09:32;12.77;;;6.70;;
69678;SDS011;56915;52.046;4.854;2023-04-19T07:12:00;9.93;;;6.15;;
69678;SDS011;56915;52.046;4.854;2023-04-19T07:14:27;10.10;;;5.53;;
69678;SDS011;56915;52.046;4.854;2023-04-19T07:16:54;11.05;;;6.18;;
69678;SDS011;56915;52.046;4.854;2023-04-19T07:19:21;8.98;;;5.55;;
69678;SDS011;56915;52.046;4.854;2023-04-19T07:21:48;8.07;;;4.90;;
69678;SDS011;56915;52.046;4.854;2023-04-19T07:24:15;11.27;;;5.63;;
69678;SDS011;56915;52.046;4.854;2023-04-19T07:26:43;8.77;;;5.30;;
69678;SDS011;56915;52.046;4.854;2023-04-19T07:29:09;9.38;;;5.82;;
69678;SDS011;56915;52.046;4.854;2023-04-19T07:31:39;7.82;;;4.50;;
69678;SDS011;56915;52.046;4.854;2023-04-19T07:34:07;8.33;;;4.73;;
69678;SDS011;56915;52.046;4.854;2023-04-19T07:36:34;9.70;;;5.53;;
69678;SDS011;56915;52.046;4.854;2023-04-19T07:39:02;8.05;;;5.15;;
69678;SDS011;56915;52.046;4.854;2023-04-19T07:41:30;8.93;;;5.60;;
69678;SDS011;56915;52.046;4.854;2023-04-19T07:43:57;7.38;;;4.78;;
69678;SDS011;56915;52.046;4.854;2023-04-19T07:46:24;7.67;;;4.77;;
69678;SDS011;56915;52.046;4.854;2023-04-19T07:48:51;10.63;;;5.13;;
69678;SDS011;56915;52.046;4.854;2023-04-19T07:51:18;10.30;;;5.10;;
69678;SDS011;56915;52.046;4.854;2023-04-19T07:53:46;8.98;;;5.05;;
69678;SDS011;56915;52.046;4.854;2023-04-19T07:56:13;7.28;;;4.80;;
69678;SDS011;56915;52.046;4.854;2023-04-19T07:58:40;7.80;;;4.20;;
69678;SDS011;56915;52.046;4.854;2023-04-19T08:01:09;7.47;;;4.78;;
69678;SDS011;56915;52.046;4.854;2023-04-19T08:03:36;10.65;;;4.72;;
69678;SDS011;56915;52.046;4.854;2023-04-19T08:06:04;8.63;;;4.60;;
69678;SDS011;56915;52.046;4.854;2023-04-19T08:08:34;6.65;;;4.25;;
69678;SDS011;56915;52.046;4.854;2023-04-19T08:11:01;6.40;;;3.87;;
69678;SDS011;56915;52.046;4.854;2023-04-19T08:16:00;8.43;;;3.67;;
69678;SDS011;56915;52.046;4.854;2023-04-19T08:18:30;5.45;;;2.92;;
69678;SDS011;56915;52.046;4.854;2023-04-19T08:20:58;6.25;;;3.13;;
69678;SDS011;56915;52.046;4.854;2023-04-19T08:23:25;4.27;;;2.90;;
69678;SDS011;56915;52.046;4.854;2023-04-19T08:26:10;5.28;;;2.88;;
69678;SDS011;56915;52.046;4.854;2023-04-19T08:28:37;4.68;;;3.03;;
69678;SDS011;56915;52.046;4.854;2023-04-19T08:31:07;6.20;;;3.28;;
69678;SDS011;56915;52.046;4.854;2023-04-19T08:33:34;5.70;;;3.00;;
69678;SDS011;56915;52.046;4.854;2023-04-19T08:36:01;6.10;;;3.10;;
69678;SDS011;56915;52.046;4.854;2023-04-19T08:38:28;5.72;;;3.25;;
69678;SDS011;56915;52.046;4.854;2023-04-19T08:40:54;6.57;;;2.90;;
69678;SDS011;56915;52.046;4.854;2023-04-19T08:43:21;4.75;;;2.90;;
69678;SDS011;56915;52.046;4.854;2023-04-19T08:45:51;4.50;;;2.85;;
69678;SDS011;56915;52.046;4.854;2023-04-19T08:48:19;4.77;;;2.87;;
69678;SDS011;56915;52.046;4.854;2023-04-19T08:50:47;5.25;;;2.60;;
69678;SDS011;56915;52.046;4.854;2023-04-19T08:53:32;5.38;;;3.10;;
69678;SDS011;56915;52.046;4.854;2023-04-19T08:56:00;4.30;;;2.70;;
69678;SDS011;56915;52.046;4.854;2023-04-19T08:58:31;4.88;;;2.70;;
69678;SDS011;56915;52.046;4.854;2023-04-19T09:01:17;6.23;;;2.70;;
69678;SDS011;56915;52.046;4.854;2023-04-19T09:03:59;5.03;;;2.85;;
69678;SDS011;56915;52.046;4.854;2023-04-19T09:06:46;4.88;;;3.17;;
69678;SDS011;56915;52.046;4.854;2023-04-19T09:09:20;5.35;;;3.00;;
69678;SDS011;56915;52.046;4.854;2023-04-19T09:12:16;4.88;;;3.05;;
69678;SDS011;56915;52.046;4.854;2023-04-19T09:14:43;4.20;;;2.50;;
69678;SDS011;56915;52.046;4.854;2023-04-19T09:17:17;5.30;;;2.30;;
69678;SDS011;56915;52.046;4.854;2023-04-19T09:19:44;3.45;;;2.45;;
69678;SDS011;56915;52.046;4.854;2023-04-19T09:22:12;11.55;;;2.40;;
69678;SDS011;56915;52.046;4.854;2023-04-19T09:24:40;3.72;;;2.30;;
69678;SDS011;56915;52.046;4.854;2023-04-19T09:27:09;4.33;;;1.93;;
69678;SDS011;56915;52.046;4.854;2023-04-19T09:29:37;4.07;;;2.40;;
69678;SDS011;56915;52.046;4.854;2023-04-19T09:32:04;4.60;;;2.25;;
69678;SDS011;56915;52.046;4.854;2023-04-19T09:34:31;4.43;;;1.70;;
69678;SDS011;56915;52.046;4.854;2023-04-19T09:37:10;6.97;;;2.50;;
69678;SDS011;56915;52.046;4.854;2023-04-19T09:39:58;4.07;;;2.43;;
69678;SDS011;56915;52.046;4.854;2023-04-19T09:42:43;7.55;;;2.80;;
69678;SDS011;56915;52.046;4.854;2023-04-19T09:45:43;5.20;;;2.30;;
69678;SDS011;56915;52.046;4.854;2023-04-19T09:48:12;10.60;;;2.20;;
69678;SDS011;56915;52.046;4.854;2023-04-19T09:50:52;2.70;;;1.90;;
69678;SDS011;56915;52.046;4.854;2023-04-19T09:53:30;4.77;;;2.30;;
69678;SDS011;56915;52.046;4.854;2023-04-19T09:56:01;2.92;;;1.80;;
69678;SDS011;56915;52.046;4.854;2023-04-19T09:58:32;4.70;;;1.70;;
69678;SDS011;56915;52.046;4.854;2023-04-19T10:01:02;4.22;;;1.92;;
69678;SDS011;56915;52.046;4.854;2023-04-19T10:03:33;5.72;;;1.90;;
69678;SDS011;56915;52.046;4.854;2023-04-19T10:06:00;3.33;;;1.60;;
69678;SDS011;56915;52.046;4.854;2023-04-19T10:08:40;5.90;;;1.65;;
69678;SDS011;56915;52.046;4.854;2023-04-19T10:11:09;4.43;;;1.65;;
69678;SDS011;56915;52.046;4.854;2023-04-19T10:13:36;3.38;;;1.85;;
69678;SDS011;56915;52.046;4.854;2023-04-19T10:16:04;3.25;;;2.20;;
69678;SDS011;56915;52.046;4.854;2023-04-19T10:18:45;5.83;;;1.80;;
69678;SDS011;56915;52.046;4.854;2023-04-19T10:21:11;9.73;;;1.65;;
69678;SDS011;56915;52.046;4.854;2023-04-19T10:23:40;4.85;;;1.42;;
69678;SDS011;56915;52.046;4.854;2023-04-19T10:26:07;4.32;;;1.52;;
69678;SDS011;56915;52.046;4.854;2023-04-19T10:28:34;8.27;;;1.70;;
69678;SDS011;56915;52.046;4.854;2023-04-19T10:31:03;4.50;;;1.23;;
69678;SDS011;56915;52.046;4.854;2023-04-19T10:33:34;8.30;;;1.70;;
69678;SDS011;56915;52.046;4.854;2023-04-19T10:36:03;3.00;;;1.30;;
69678;SDS011;56915;52.046;4.854;2023-04-19T10:38:41;1.42;;;1.05;;
69678;SDS011;56915;52.046;4.854;2023-04-19T10:41:17;3.35;;;1.40;;
69678;SDS011;56915;52.046;4.854;2023-04-19T10:48:53;3.15;;;1.80;;
69678;SDS011;56915;52.046;4.854;2023-04-19T10:51:27;2.65;;;1.40;;
69678;SDS011;56915;52.046;4.854;2023-04-19T10:53:58;5.38;;;1.80;;
69678;SDS011;56915;52.046;4.854;2023-04-19T11:01:41;2.92;;;1.63;;
69678;SDS011;56915;52.046;4.854;2023-04-19T11:06:59;4.13;;;1.65;;
69678;SDS011;56915;52.046;4.854;2023-04-19T11:09:31;3.00;;;1.47;;
69678;SDS011;56915;52.046;4.854;2023-04-19T11:12:09;2.90;;;1.60;;
69678;SDS011;56915;52.046;4.854;2023-04-19T11:14:41;2.78;;;1.80;;
69678;SDS011;56915;52.046;4.854;2023-04-19T11:17:19;2.90;;;1.50;;
69678;SDS011;56915;52.046;4.854;2023-04-19T11:20:01;2.97;;;1.40;;
69678;SDS011;56915;52.046;4.854;2023-04-19T11:22:38;2.00;;;1.30;;
69678;SDS011;56915;52.046;4.854;2023-04-19T11:27:43;3.03;;;1.40;;
69678;SDS011;56915;52.046;4.854;2023-04-19T11:30:14;2.33;;;1.40;;
69678;SDS011;56915;52.046;4.854;2023-04-19T11:32:43;6.10;;;1.65;;
69678;SDS011;56915;52.046;4.854;2023-04-19T11:35:22;3.73;;;1.47;;
69678;SDS011;56915;52.046;4.854;2023-04-19T11:37:51;2.85;;;1.13;;
69678;SDS011;56915;52.046;4.854;2023-04-19T11:40:18;2.17;;;1.25;;
69678;SDS011;56915;52.046;4.854;2023-04-19T11:42:52;2.15;;;1.38;;
69678;SDS011;56915;52.046;4.854;2023-04-19T11:45:26;5.80;;;1.58;;
69678;SDS011;56915;52.046;4.854;2023-04-19T11:47:59;2.70;;;1.30;;
69678;SDS011;56915;52.046;4.854;2023-04-19T11:50:30;4.13;;;1.23;;
69678;SDS011;56915;52.046;4.854;2023-04-19T11:53:18;3.85;;;1.10;;
69678;SDS011;56915;52.046;4.854;2023-04-19T11:55:47;2.53;;;1.48;;
69678;SDS011;56915;52.046;4.854;2023-04-19T11:58:26;2.90;;;1.35;;
69678;SDS011;56915;52.046;4.854;2023-04-19T12:03:32;3.58;;;1.20;;
69678;SDS011;56915;52.046;4.854;2023-04-19T12:06:01;2.47;;;1.60;;
69678;SDS011;56915;52.046;4.854;2023-04-19T12:08:33;4.10;;;1.77;;
69678;SDS011;56915;52.046;4.854;2023-04-19T12:11:01;8.38;;;2.00;;
69678;SDS011;56915;52.046;4.854;2023-04-19T12:13:29;6.00;;;1.83;;
69678;SDS011;56915;52.046;4.854;2023-04-19T12:15:57;3.58;;;1.70;;
69678;SDS011;56915;52.046;4.854;2023-04-19T12:18:24;5.00;;;1.80;;
69678;SDS011;56915;52.046;4.854;2023-04-19T12:20:52;9.18;;;2.20;;
69678;SDS011;56915;52.046;4.854;2023-04-19T12:23:20;6.38;;;2.47;;
69678;SDS011;56915;52.046;4.854;2023-04-19T12:25:47;2.90;;;1.77;;
69678;SDS011;56915;52.046;4.854;2023-04-19T12:28:14;5.00;;;1.88;;
69678;SDS011;56915;52.046;4.854;2023-04-19T12:30:42;2.97;;;1.80;;
69678;SDS011;56915;52.046;4.854;2023-04-19T12:33:09;4.22;;;1.70;;
69678;SDS011;56915;52.046;4.854;2023-04-19T12:35:36;5.63;;;1.80;;
69678;SDS011;56915;52.046;4.854;2023-04-19T12:38:04;7.63;;;2.00;;
69678;SDS011;56915;52.046;4.854;2023-04-19T12:40:31;3.20;;;1.80;;
69678;SDS011;56915;52.046;4.854;2023-04-19T12:42:58;2.92;;;2.03;;
69678;SDS011;56915;52.046;4.854;2023-04-19T12:45:25;4.63;;;1.83;;
69678;SDS011;56915;52.046;4.854;2023-04-19T12:47:52;3.63;;;1.58;;
69678;SDS011;56915;52.046;4.854;2023-04-19T12:50:19;4.23;;;1.90;;
69678;SDS011;56915;52.046;4.854;2023-04-19T12:52:45;3.17;;;2.00;;
69678;SDS011;56915;52.046;4.854;2023-04-19T12:55:12;4.40;;;2.20;;
69678;SDS011;56915;52.046;4.854;2023-04-19T12:57:39;2.95;;;2.17;;
69678;SDS011;56915;52.046;4.854;2023-04-19T13:00:07;3.83;;;2.00;;
69678;SDS011;56915;52.046;4.854;2023-04-19T13:02:35;3.70;;;2.00;;
69678;SDS011;56915;52.046;4.854;2023-04-19T13:05:03;3.38;;;2.03;;
69678;SDS011;56915;52.046;4.854;2023-04-19T13:07:30;5.57;;;2.33;;
69678;SDS011;56915;52.046;4.854;2023-04-19T13:09:57;2.80;;;1.70;;
69678;SDS011;56915;52.046;4.854;2023-04-19T13:12:25;4.38;;;2.00;;
69678;SDS011;56915;52.046;4.854;2023-04-19T13:14:51;7.20;;;2.00;;
69678;SDS011;56915;52.046;4.854;2023-04-19T13:17:18;4.03;;;1.77;;
69678;SDS011;56915;52.046;4.854;2023-04-19T13:19:45;5.07;;;2.17;;
69678;SDS011;56915;52.046;4.854;2023-04-19T13:22:12;4.00;;;1.95;;
69678;SDS011;56915;52.046;4.854;2023-04-19T13:24:39;5.53;;;2.38;;
69678;SDS011;56915;52.046;4.854;2023-04-19T13:27:06;4.03;;;2.53;;
69678;SDS011;56915;52.046;4.854;2023-04-19T13:29:34;2.72;;;2.28;;
69678;SDS011;56915;52.046;4.854;2023-04-19T13:32:01;4.65;;;2.38;;
69678;SDS011;56915;52.046;4.854;2023-04-19T13:34:28;2.40;;;1.60;;
69678;SDS011;56915;52.046;4.854;2023-04-19T13:36:55;4.10;;;2.60;;
69678;SDS011;56915;52.046;4.854;2023-04-19T13:39:22;5.30;;;2.43;;
69678;SDS011;56915;52.046;4.854;2023-04-19T13:41:49;9.07;;;2.72;;
69678;SDS011;56915;52.046;4.854;2023-04-19T13:44:16;6.55;;;2.90;;
69678;SDS011;56915;52.046;4.854;2023-04-19T13:46:43;4.78;;;2.33;;
69678;SDS011;56915;52.046;4.854;2023-04-19T13:49:10;4.45;;;2.40;;
69678;SDS011;56915;52.046;4.854;2023-04-19T13:51:37;5.13;;;2.70;;
69678;SDS011;56915;52.046;4.854;2023-04-19T13:54:15;3.45;;;2.20;;
69678;SDS011;56915;52.046;4.854;2023-04-19T13:56:44;4.22;;;2.63;;
69678;SDS011;56915;52.046;4.854;2023-04-19T13:59:11;4.15;;;2.35;;
69678;SDS011;56915;52.046;4.854;2023-04-19T14:01:37;4.25;;;2.20;;
69678;SDS011;56915;52.046;4.854;2023-04-19T14:04:04;5.13;;;2.70;;
69678;SDS011;56915;52.046;4.854;2023-04-19T14:06:32;6.18;;;2.90;;
69678;SDS011;56915;52.046;4.854;2023-04-19T14:08:58;3.05;;;1.90;;
69678;SDS011;56915;52.046;4.854;2023-04-19T14:11:25;3.58;;;2.10;;
69678;SDS011;56915;52.046;4.854;2023-04-19T14:13:52;4.35;;;2.08;;
69678;SDS011;56915;52.046;4.854;2023-04-19T14:16:21;4.37;;;2.50;;
69678;SDS011;56915;52.046;4.854;2023-04-19T14:18:50;4.85;;;2.58;;
69678;SDS011;56915;52.046;4.854;2023-04-19T14:21:17;4.90;;;2.50;;
69678;SDS011;56915;52.046;4.854;2023-04-19T14:23:44;11.55;;;2.20;;
69678;SDS011;56915;52.046;4.854;2023-04-19T14:26:11;4.13;;;2.20;;
69678;SDS011;56915;52.046;4.854;2023-04-19T14:28:38;4.00;;;2.20;;
69678;SDS011;56915;52.046;4.854;2023-04-19T14:31:05;3.47;;;2.22;;
69678;SDS011;56915;52.046;4.854;2023-04-19T14:33:31;3.15;;;2.20;;
69678;SDS011;56915;52.046;4.854;2023-04-19T14:35:58;2.72;;;1.77;;
69678;SDS011;56915;52.046;4.854;2023-04-19T14:38:26;2.78;;;1.83;;
69678;SDS011;56915;52.046;4.854;2023-04-19T14:40:53;6.40;;;2.20;;
69678;SDS011;56915;52.046;4.854;2023-04-19T14:43:19;3.85;;;2.15;;
69678;SDS011;56915;52.046;4.854;2023-04-19T14:45:47;7.38;;;2.53;;
69678;SDS011;56915;52.046;4.854;2023-04-19T14:48:15;5.47;;;2.35;;
69678;SDS011;56915;52.046;4.854;2023-04-19T14:50:41;3.67;;;2.17;;
69678;SDS011;56915;52.046;4.854;2023-04-19T14:53:08;4.83;;;2.40;;
69678;SDS011;56915;52.046;4.854;2023-04-19T14:55:38;3.88;;;1.58;;
69678;SDS011;56915;52.046;4.854;2023-04-19T14:58:05;3.42;;;2.30;;
69678;SDS011;56915;52.046;4.854;2023-04-19T15:00:32;3.72;;;2.15;;
69678;SDS011;56915;52.046;4.854;2023-04-19T15:02:59;3.05;;;2.05;;
69678;SDS011;56915;52.046;4.854;2023-04-19T15:05:27;3.30;;;2.07;;
69678;SDS011;56915;52.046;4.854;2023-04-19T15:07:54;3.22;;;1.80;;
69678;SDS011;56915;52.046;4.854;2023-04-19T15:10:21;5.72;;;2.15;;
69678;SDS011;56915;52.046;4.854;2023-04-19T15:12:47;3.13;;;2.10;;